Rogers City, MI (49779)

5:40 AM EDT on August 28, 2015 (GMT -0400)
West Erie St. | | Change Station
CLOSE
Current Station
Personal Weather Station
Location: Rogers City, MI
Elevation: 640 ft
Nearby Weather Stations

Elev 640 ft 45.42 °N, 83.82 °W | Updated 18 seconds ago

Clear
Clear
55.6 °F
Feels Like 55.6 °F
N
0.0
Wind Variable Wind from North
Gusts 0.0 mph

Today
High -- | Low -- °F
--% Chance of Precip.
Yesterday
High -- | Low -- °F
Precip. -- in
6:51 AM 8:20 PM
Waxing Gibbous, 97% visible
Pressure 30.14 in
Visibility 10.0 miles
Clouds Clear
Dew Point 48 °F
Humidity 77%
Rainfall 0.00 in
Snow Depth Not available.
UV 0 out of 12
Pollen 9.20 out of 12
Air Quality Not available.
Flu Activity Not available.
METAR KPZQ 280935Z AUTO 22006KT 10SM CLR 12/11 A3014 RMK AO2 T01230113
Pressure 30.14 in
Visibility 10.0 miles
Clouds Clear
Dew Point 48 °F
Humidity 77%
Rainfall 0.00 in
Snow Depth Not available.
UV 0 out of 12
Pollen 9.20 out of 12
Air Quality Not available.
Flu Activity Not available.
METAR KPZQ 280935Z AUTO 22006KT 10SM CLR 12/11 A3014 RMK AO2 T01230113
Nowcast | as of 5:00 am EDT on August 28, 2015

At 6 am...clear. Patchy fog. Temperature 53. Southwest winds 8 mph. At 8 am...mostly clear. Temperature 55. Southwest winds 9 mph. At 10 am...mostly clear. Temperature 64. Southwest winds 9 mph. At 12 PM...mostly clear. Temperature 71. Southwest winds 8 mph.

×

10-Day Weather Forecast

×

Almanac

Astronomy

Aug. 28, 2015 Rise Set
Actual Time
Civil Twilight
Nautical Twilight
Astronomical Twilight
Moon
Length of Visible Light
Length of Day
Tomorrow will be .
, % of the Moon is Illuminated

Today's Extremes

State Highs State Lows

Community

WunderPhotos

Upload Photos

1,850,352 photos uploaded!

WunderBlogs® & News

Nearby

Air Quality

  Air Quality AQ Index Pollutant
Not available.

Snow Depth

Station Depth Elevation

Earthquake Activity

City Distance Mag. Time & Date
Minimum magnitude displayed is 2.5.

Coastal Water Temperatures

Place Temperature

Stations

Nearby Weather Stations

Station Location Temp. Windchill Dew Point Humidity Wind Precip. Elev Updated Type